createdAt,value
2018-08-19T00:01:10.897Z,99689.23
2018-08-19T00:03:39.201Z,99694.20
2018-08-19T00:06:08.195Z,99688.37
2018-08-19T00:08:36.603Z,99686.21
2018-08-19T00:11:07.650Z,99688.49
2018-08-19T00:13:36.866Z,99682.81
2018-08-19T00:16:05.462Z,99686.81
2018-08-19T00:18:35.538Z,99687.28
2018-08-19T00:21:05.991Z,99688.61
2018-08-19T00:23:39.466Z,99690.06
2018-08-19T00:26:07.804Z,99684.86
2018-08-19T00:28:36.126Z,99688.97
2018-08-19T00:31:05.834Z,99684.98
2018-08-19T00:33:34.473Z,99687.14
2018-08-19T00:36:08.347Z,99686.31
2018-08-19T00:38:36.726Z,99682.44
2018-08-19T00:41:05.094Z,99678.06
2018-08-19T00:43:33.385Z,99681.70
2018-08-19T00:46:11.653Z,99677.20
2018-08-19T00:48:39.966Z,99679.05
2018-08-19T00:51:08.334Z,99676.50
2018-08-19T00:53:36.754Z,99676.62
2018-08-19T00:56:05.063Z,99675.30
2018-08-19T00:58:33.385Z,99676.12
2018-08-19T01:01:01.775Z,99666.80
2018-08-19T01:03:35.398Z,99667.31
2018-08-19T01:06:03.754Z,99664.73
2018-08-19T01:08:32.094Z,99651.91
2018-08-19T01:11:00.495Z,99654.09
2018-08-19T01:13:28.869Z,99649.87
2018-08-19T01:15:57.258Z,99653.00
2018-08-19T01:18:25.557Z,99655.67
2018-08-19T01:21:04.270Z,99655.79
2018-08-19T01:23:32.579Z,99656.14
2018-08-19T01:26:00.899Z,99654.58
2018-08-19T01:28:29.266Z,99653.25
2018-08-19T01:30:57.587Z,99656.88
2018-08-19T01:33:26.059Z,99643.58
2018-08-19T01:35:54.364Z,99647.66
2018-08-19T01:38:22.677Z,99637.02
2018-08-19T01:40:51.038Z,99643.31
2018-08-19T01:43:19.370Z,99642.46
2018-08-19T01:45:47.683Z,99639.45
2018-08-19T01:48:15.998Z,99642.11
2018-08-19T01:50:44.286Z,99642.58
2018-08-19T01:53:19.114Z,99653.73
2018-08-19T01:55:47.393Z,99645.36
2018-08-19T01:58:22.166Z,99650.33
2018-08-19T02:00:50.432Z,99651.66
2018-08-19T02:03:18.705Z,99649.95
2018-08-19T02:05:46.958Z,99646.94
2018-08-19T02:08:15.256Z,99644.27
2018-08-19T02:10:43.513Z,99650.57
2018-08-19T02:13:11.808Z,99651.91
2018-08-19T02:15:40.045Z,99648.00
2018-08-19T02:18:08.367Z,99644.60
2018-08-19T02:20:39.358Z,99651.25
2018-08-19T02:23:09.982Z,99653.91
2018-08-19T02:25:41.275Z,99652.58
2018-08-19T02:28:10.213Z,99655.72
2018-08-19T02:30:51.576Z,99658.37
2018-08-19T02:33:20.290Z,99653.65
2018-08-19T02:35:53.926Z,99655.45
2018-08-19T02:38:22.276Z,99654.62
2018-08-19T02:40:52.177Z,99659.44
2018-08-19T02:43:21.230Z,99660.42
2018-08-19T02:45:49.522Z,99653.89
2018-08-19T02:48:17.898Z,99653.50
2018-08-19T02:50:46.241Z,99657.02
2018-08-19T02:53:14.526Z,99652.67
2018-08-19T02:55:42.834Z,99650.48
2018-08-19T02:58:16.686Z,99654.12
2018-08-19T03:00:44.985Z,99653.15
2018-08-19T03:03:13.358Z,99652.41
2018-08-19T03:05:45.831Z,99652.41
2018-08-19T03:08:14.159Z,99650.73
2018-08-19T03:10:42.458Z,99655.19
2018-08-19T03:13:10.762Z,99651.67
2018-08-19T03:15:39.075Z,99650.97
2018-08-19T03:18:07.423Z,99645.27
2018-08-19T03:20:35.742Z,99643.07
2018-08-19T03:23:04.126Z,99649.72
2018-08-19T03:25:32.418Z,99648.04
2018-08-19T03:28:00.718Z,99651.56
2018-08-19T03:30:29.035Z,99649.02
2018-08-19T03:33:00.350Z,99649.48
2018-08-19T03:35:28.686Z,99642.10
2018-08-19T03:38:00.588Z,99643.81
2018-08-19T03:40:29.098Z,99639.83
2018-08-19T03:42:57.502Z,99639.09
2018-08-19T03:45:25.880Z,99635.22
2018-08-19T03:47:54.138Z,99638.70
2018-08-19T03:50:24.443Z,99637.02
2018-08-19T03:52:53.278Z,99635.69
2018-08-19T03:55:27.725Z,99644.53
2018-08-19T03:57:59.424Z,99641.13
2018-08-19T04:00:28.926Z,99639.92
2018-08-19T04:02:57.247Z,99642.58
2018-08-19T04:05:42.166Z,99634.72
2018-08-19T04:08:11.648Z,99638.70
2018-08-19T04:10:41.335Z,99638.32
2018-08-19T04:13:41.178Z,99636.17
2018-08-19T04:16:10.754Z,99633.13
2018-08-19T04:18:45.558Z,99631.05
2018-08-19T04:21:16.116Z,99629.72
2018-08-19T04:23:49.246Z,99634.69
2018-08-19T04:26:17.510Z,99630.31
2018-08-19T04:28:46.467Z,99634.81
2018-08-19T04:31:20.024Z,99633.48
2018-08-19T04:33:49.049Z,99628.63
2018-08-19T04:36:18.537Z,99630.94
2018-08-19T04:38:46.771Z,99628.39
2018-08-19T04:41:15.330Z,99635.87
2018-08-19T04:43:44.102Z,99635.98
2018-08-19T04:46:12.427Z,99636.45
2018-08-19T04:48:40.750Z,99638.29
2018-08-19T04:51:09.100Z,99644.94
2018-08-19T04:53:37.355Z,99648.42
2018-08-19T04:56:05.679Z,99649.05
2018-08-19T04:58:33.931Z,99646.73
2018-08-19T05:01:02.186Z,99648.06
2018-08-19T05:03:30.543Z,99651.70
2018-08-19T05:05:59.722Z,99657.48
2018-08-19T05:08:28.099Z,99654.83
2018-08-19T05:10:56.276Z,99651.20
2018-08-19T05:13:24.600Z,99660.03
2018-08-19T05:15:52.866Z,99653.38
2018-08-19T05:18:21.158Z,99651.08
2018-08-19T05:20:49.488Z,99651.58
2018-08-19T05:23:17.750Z,99654.72
2018-08-19T05:25:56.409Z,99656.05
2018-08-19T05:28:24.739Z,99654.72
2018-08-19T05:30:52.958Z,99659.56
2018-08-19T05:33:21.219Z,99659.67
2018-08-19T05:35:49.478Z,99660.03
2018-08-19T05:38:17.747Z,99658.70
2018-08-19T05:40:53.018Z,99655.07
2018-08-19T05:43:21.906Z,99656.39
2018-08-19T05:45:57.214Z,99663.05
2018-08-19T05:48:25.807Z,99656.39
2018-08-19T05:50:54.420Z,99659.06
2018-08-19T05:53:23.018Z,99655.92
2018-08-19T05:55:51.616Z,99659.45
2018-08-19T05:58:20.278Z,99657.64
2018-08-19T06:01:02.803Z,99654.12
2018-08-19T06:03:31.178Z,99654.98
2018-08-19T06:05:59.694Z,99653.54
2018-08-19T06:08:28.126Z,99654.36
2018-08-19T06:10:56.459Z,99646.39
2018-08-19T06:13:27.334Z,99660.89
2018-08-19T06:15:55.675Z,99646.27
2018-08-19T06:18:23.942Z,99648.34
2018-08-19T06:20:52.286Z,99651.73
2018-08-19T06:23:22.022Z,99649.46
2018-08-19T06:25:50.374Z,99651.27
2018-08-19T06:28:18.677Z,99643.52
2018-08-19T06:30:47.052Z,99650.17
2018-08-19T06:33:15.466Z,99648.72
2018-08-19T06:35:43.829Z,99648.64
2018-08-19T06:38:12.227Z,99650.67
2018-08-19T06:40:40.554Z,99645.86
2018-08-19T06:43:09.032Z,99647.66
2018-08-19T06:45:37.243Z,99651.65
2018-08-19T06:48:05.576Z,99646.68
2018-08-19T06:50:35.163Z,99646.56
2018-08-19T06:53:03.525Z,99636.66
2018-08-19T06:55:32.467Z,99644.52
2018-08-19T06:58:01.086Z,99642.60
2018-08-19T07:00:30.402Z,99647.80
2018-08-19T07:03:05.134Z,99646.73
2018-08-19T07:05:34.198Z,99645.77
2018-08-19T07:08:03.331Z,99647.83
2018-08-19T07:10:40.982Z,99644.19
2018-08-19T07:13:14.440Z,99649.30
2018-08-19T07:15:43.846Z,99644.34
2018-08-19T07:18:13.995Z,99644.22
2018-08-19T07:20:42.992Z,99640.14
2018-08-19T07:23:11.882Z,99635.20
2018-08-19T07:25:42.118Z,99635.94
2018-08-19T07:28:11.370Z,99640.28
2018-08-19T07:30:40.119Z,99643.68
2018-08-19T07:33:08.619Z,99633.39
2018-08-19T07:35:36.927Z,99630.14
2018-08-19T07:38:05.282Z,99629.16
2018-08-19T07:40:34.582Z,99621.05
2018-08-19T07:43:02.894Z,99626.28
2018-08-19T07:45:31.286Z,99621.66
2018-08-19T07:47:59.618Z,99626.39
2018-08-19T07:50:27.966Z,99630.65
2018-08-19T07:52:56.383Z,99629.19
2018-08-19T07:55:24.896Z,99627.74
2018-08-19T07:57:53.247Z,99629.80
2018-08-19T08:00:27.817Z,99629.69
2018-08-19T08:02:56.238Z,99629.44
2018-08-19T08:05:25.634Z,99634.77
2018-08-19T08:07:53.998Z,99638.51
2018-08-19T08:10:22.362Z,99637.91
2018-08-19T08:12:54.991Z,99639.12
2018-08-19T08:15:23.468Z,99633.20
2018-08-19T08:17:51.847Z,99635.73
2018-08-19T08:20:20.155Z,99637.69
2018-08-19T08:22:48.546Z,99638.89
2018-08-19T08:25:16.982Z,99637.21
2018-08-19T08:27:45.286Z,99631.29
2018-08-19T08:30:13.658Z,99629.33
2018-08-19T08:32:45.659Z,99633.11
2018-08-19T08:35:14.033Z,99630.20
2018-08-19T08:37:42.670Z,99633.59
2018-08-19T08:40:11.726Z,99630.30
2018-08-19T08:42:42.907Z,99630.80
2018-08-19T08:45:17.386Z,99628.37
2018-08-19T08:47:45.840Z,99631.64
2018-08-19T08:50:14.063Z,99627.05
2018-08-19T08:52:43.982Z,99624.28
2018-08-19T08:55:13.091Z,99628.89
2018-08-19T08:57:41.449Z,99623.09
2018-08-19T09:00:11.194Z,99622.36
2018-08-19T09:02:39.902Z,99626.70
2018-08-19T09:05:10.425Z,99622.23
2018-08-19T09:07:39.400Z,99622.46
2018-08-19T09:10:07.726Z,99615.92
2018-08-19T09:12:51.822Z,99610.00
2018-08-19T09:15:20.329Z,99609.02
2018-08-19T09:17:48.678Z,99610.73
2018-08-19T09:20:17.143Z,99608.80
2018-08-19T09:22:46.334Z,99610.83
2018-08-19T09:25:14.614Z,99605.41
2018-08-19T09:27:43.469Z,99601.28
2018-08-19T09:30:18.684Z,99599.31
2018-08-19T09:32:59.061Z,99600.90
2018-08-19T09:35:30.366Z,99601.38
2018-08-19T09:38:03.041Z,99593.77
2018-08-19T09:40:32.181Z,99591.45
2018-08-19T09:43:00.692Z,99592.66
2018-08-19T09:45:29.074Z,99583.70
2018-08-19T09:47:57.511Z,99580.05
2018-08-19T09:50:25.759Z,99585.64
2018-08-19T09:52:54.171Z,99588.66
2018-08-19T09:55:27.174Z,99588.17
2018-08-19T09:57:56.041Z,99580.88
2018-08-19T10:00:25.182Z,99576.78
2018-08-19T10:02:53.498Z,99572.28
2018-08-19T10:05:24.525Z,99577.00
2018-08-19T10:07:54.635Z,99583.53
2018-08-19T10:10:23.798Z,99581.25
2018-08-19T10:12:52.284Z,99579.28
2018-08-19T10:15:20.614Z,99568.48
2018-08-19T10:17:48.999Z,99567.88
2018-08-19T10:20:17.341Z,99563.76
2018-08-19T10:22:45.962Z,99560.61
2018-08-19T10:25:16.562Z,99562.67
2018-08-19T10:27:47.141Z,99556.86
2018-08-19T10:30:18.441Z,99560.13
2018-08-19T10:33:01.318Z,99564.00
2018-08-19T10:35:30.422Z,99556.34
2018-08-19T10:37:59.442Z,99546.03
2018-08-19T10:40:27.793Z,99550.28
2018-08-19T10:43:01.971Z,99547.95
2018-08-19T10:45:30.286Z,99545.22
2018-08-19T10:47:58.687Z,99533.23
2018-08-19T10:50:28.666Z,99535.25
2018-08-19T10:52:57.078Z,99533.78
2018-08-19T10:55:26.554Z,99532.83
2018-08-19T10:57:55.717Z,99524.83
2018-08-19T11:00:28.074Z,99520.23
2018-08-19T11:03:11.521Z,99526.76
2018-08-19T11:05:41.242Z,99519.96
2018-08-19T11:08:10.334Z,99517.64
2018-08-19T11:10:38.622Z,99510.84
2018-08-19T11:13:07.202Z,99509.75
2018-08-19T11:15:41.243Z,99505.75
2018-08-19T11:18:22.530Z,99502.09
2018-08-19T11:20:52.966Z,99504.16
2018-08-19T11:23:24.258Z,99499.06
2018-08-19T11:25:53.590Z,99502.42
2018-08-19T11:28:57.531Z,99491.75
2018-08-19T11:31:31.281Z,99486.31
2018-08-19T11:34:04.680Z,99482.66
2018-08-19T11:36:38.339Z,99481.67
2018-08-19T11:39:08.362Z,99485.19
2018-08-19T11:41:36.721Z,99476.92
2018-08-19T11:44:08.263Z,99474.63
2018-08-19T11:46:36.722Z,99470.62
2018-08-19T11:49:09.171Z,99470.50
2018-08-19T11:51:50.792Z,99471.70
2018-08-19T11:54:20.003Z,99465.88
2018-08-19T11:56:54.631Z,99460.41
2018-08-19T11:59:25.015Z,99460.75
2018-08-19T12:01:53.346Z,99463.28
2018-08-19T12:04:21.843Z,99463.66
2018-08-19T12:06:50.140Z,99457.34
2018-08-19T12:09:18.423Z,99455.02
2018-08-19T12:11:46.826Z,99458.53
2018-08-19T12:14:15.619Z,99452.72
2018-08-19T12:16:50.212Z,99448.58
2018-08-19T12:19:19.901Z,99443.11
2018-08-19T12:21:51.212Z,99443.97
2018-08-19T12:24:35.494Z,99436.78
2018-08-19T12:27:04.962Z,99441.50
2018-08-19T12:29:34.494Z,99436.03
2018-08-19T12:32:15.276Z,99431.07
2018-08-19T12:34:46.318Z,99427.41
2018-08-19T12:37:15.703Z,99427.78
2018-08-19T12:39:44.022Z,99425.11
2018-08-19T12:42:27.456Z,99420.59
2018-08-19T12:44:59.627Z,99420.13
2018-08-19T12:47:28.377Z,99420.84
2018-08-19T12:49:57.954Z,99419.84
2018-08-19T12:52:29.502Z,99418.52
2018-08-19T12:55:01.812Z,99402.88
2018-08-19T12:57:30.146Z,99401.03
2018-08-19T13:00:33.654Z,99401.55
2018-08-19T13:03:02.302Z,99398.87
2018-08-19T13:05:30.597Z,99399.22
2018-08-19T13:07:58.946Z,99399.08
2018-08-19T13:10:35.286Z,99395.93
2018-08-19T13:13:03.736Z,99393.27
2018-08-19T13:15:32.023Z,99396.30
2018-08-19T13:21:04.630Z,99384.67
2018-08-19T13:23:33.174Z,99385.01
2018-08-19T13:26:01.536Z,99384.16
2018-08-19T13:28:29.908Z,99381.01
2018-08-19T13:30:58.267Z,99380.53
2018-08-19T13:33:26.791Z,99369.72
2018-08-19T13:35:55.442Z,99372.86
2018-08-19T13:38:34.359Z,99371.05
2018-08-19T13:41:33.360Z,99366.70
2018-08-19T13:44:02.249Z,99365.71
2018-08-19T13:46:30.658Z,99353.70
2018-08-19T13:48:59.045Z,99353.70
2018-08-19T13:51:27.403Z,99352.23
2018-08-19T13:53:55.690Z,99353.08
2018-08-19T13:56:24.043Z,99343.37
2018-08-19T13:58:52.359Z,99339.59
2018-08-19T14:01:20.707Z,99337.89
2018-08-19T14:03:48.971Z,99330.73
2018-08-19T14:06:18.353Z,99329.41
2018-08-19T14:08:46.789Z,99337.78
2018-08-19T14:11:15.126Z,99331.11
2018-08-19T14:13:43.508Z,99323.92
2018-08-19T14:16:11.770Z,99331.45
2018-08-19T14:18:40.038Z,99326.11
2018-08-19T14:21:08.340Z,99326.11
2018-08-19T14:23:36.642Z,99322.11
2018-08-19T14:26:04.962Z,99329.63
2018-08-19T14:28:33.250Z,99330.12
2018-08-19T14:31:01.571Z,99330.45
2018-08-19T14:33:29.855Z,99327.78
2018-08-19T14:35:59.047Z,99333.98
2018-08-19T14:38:27.354Z,99331.79
2018-08-19T14:40:55.674Z,99330.12
2018-08-19T14:43:24.102Z,99328.64
2018-08-19T14:45:52.399Z,99324.30
2018-08-19T14:48:20.683Z,99326.11
2018-08-19T14:50:49.007Z,99321.11
2018-08-19T14:53:17.318Z,99321.63
2018-08-19T14:55:45.695Z,99312.42
2018-08-19T14:58:13.999Z,99319.44
2018-08-19T15:00:42.338Z,99313.77
2018-08-19T15:03:10.659Z,99312.91
2018-08-19T15:05:39.008Z,99312.05
2018-08-19T15:08:12.530Z,99308.05
2018-08-19T15:10:41.342Z,99307.20
2018-08-19T15:16:08.672Z,99291.13
2018-08-19T15:18:37.095Z,99302.72
2018-08-19T15:21:05.439Z,99299.56
2018-08-19T15:23:33.865Z,99300.53
2018-08-19T15:26:02.227Z,99299.70
2018-08-19T15:28:30.674Z,99302.23
2018-08-19T15:30:59.074Z,99296.05
2018-08-19T15:33:27.532Z,99295.08
2018-08-19T15:35:55.862Z,99295.91
2018-08-19T15:38:24.255Z,99295.08
2018-08-19T15:41:06.898Z,99290.56
2018-08-19T15:43:35.387Z,99289.60
2018-08-19T15:46:03.850Z,99295.77
2018-08-19T15:48:32.338Z,99293.46
2018-08-19T15:51:04.767Z,99289.09
2018-08-19T15:53:33.178Z,99282.79
2018-08-19T15:56:01.566Z,99287.13
2018-08-19T15:58:30.118Z,99285.80
2018-08-19T16:00:58.588Z,99281.80
2018-08-19T16:03:27.146Z,99282.64
2018-08-19T16:05:55.532Z,99285.80
2018-08-19T16:08:23.887Z,99280.45
2018-08-19T16:10:52.291Z,99284.84
2018-08-19T16:13:27.115Z,99277.65
2018-08-19T16:15:55.449Z,99276.83
2018-08-19T16:18:23.755Z,99281.17
2018-08-19T16:21:06.135Z,99279.49
2018-08-19T16:23:34.404Z,99278.16
2018-08-19T16:26:02.699Z,99268.82
2018-08-19T16:28:31.011Z,99266.48
2018-08-19T16:30:59.299Z,99267.83
2018-08-19T16:33:27.688Z,99266.48
2018-08-19T16:35:56.055Z,99259.48
2018-08-19T16:38:24.333Z,99261.30
2018-08-19T16:40:52.602Z,99260.44
2018-08-19T16:43:20.866Z,99264.45
2018-08-19T16:45:49.394Z,99264.45
2018-08-19T16:48:17.678Z,99267.11
2018-08-19T16:50:46.267Z,99266.41
2018-08-19T16:53:14.473Z,99266.06
2018-08-19T16:55:42.820Z,99268.59
2018-08-19T16:58:11.128Z,99265.07
2018-08-19T17:00:39.403Z,99267.26
2018-08-19T17:03:23.864Z,99261.92
2018-08-19T17:05:52.239Z,99262.40
2018-08-19T17:08:20.544Z,99266.41
2018-08-19T17:10:48.890Z,99258.54
2018-08-19T17:13:17.245Z,99254.53
2018-08-19T17:15:45.543Z,99260.73
2018-08-19T17:18:13.828Z,99258.69
2018-08-19T17:20:42.452Z,99261.35
2018-08-19T17:23:10.822Z,99250.67
2018-08-19T17:25:39.211Z,99249.00
2018-08-19T17:28:15.722Z,99250.67
2018-08-19T17:30:44.014Z,99254.82
2018-08-19T17:33:12.322Z,99253.01
2018-08-19T17:35:42.892Z,99256.16
2018-08-19T17:38:11.207Z,99260.30
2018-08-19T17:40:40.102Z,99258.48
2018-08-19T17:43:10.070Z,99252.64
2018-08-19T17:45:39.513Z,99258.34
2018-08-19T17:48:08.769Z,99258.83
2018-08-19T17:50:38.315Z,99253.34
2018-08-19T17:53:07.290Z,99255.67
2018-08-19T17:55:35.682Z,99256.64
2018-08-19T17:58:04.103Z,99260.64
2018-08-19T18:00:32.435Z,99262.83
2018-08-19T18:03:00.722Z,99262.83
2018-08-19T18:05:29.072Z,99267.31
2018-08-19T18:07:57.436Z,99264.30
2018-08-19T18:10:25.738Z,99270.13
2018-08-19T18:12:54.046Z,99263.59
2018-08-19T18:15:22.406Z,99264.08
2018-08-19T18:17:57.122Z,99270.27
2018-08-19T18:20:28.321Z,99267.73
2018-08-19T18:22:57.491Z,99267.98
2018-08-19T18:25:26.135Z,99272.95
2018-08-19T18:27:54.582Z,99269.72
2018-08-19T18:30:24.798Z,99274.23
2018-08-19T18:32:53.178Z,99272.66
2018-08-19T18:35:22.670Z,99270.99
2018-08-19T18:37:51.075Z,99277.29
2018-08-19T18:40:24.619Z,99271.95
2018-08-19T18:42:53.240Z,99274.28
2018-08-19T18:45:21.606Z,99272.95
2018-08-19T18:47:55.207Z,99272.09
2018-08-19T18:50:24.419Z,99272.23
2018-08-19T18:52:53.259Z,99277.94
2018-08-19T18:55:21.714Z,99274.56
2018-08-19T18:57:50.879Z,99273.70
2018-08-19T19:00:20.055Z,99272.03
2018-08-19T19:02:52.626Z,99273.85
2018-08-19T19:05:32.135Z,99270.84
2018-08-19T19:08:05.827Z,99276.66
2018-08-19T19:10:34.245Z,99280.66
2018-08-19T19:13:02.758Z,99279.47
2018-08-19T19:15:34.011Z,99272.28
2018-08-19T19:18:02.326Z,99281.76
2018-08-19T19:20:30.631Z,99280.94
2018-08-19T19:23:02.387Z,99279.60
2018-08-19T19:25:35.858Z,99282.75
2018-08-19T19:28:04.303Z,99285.56
2018-08-19T19:30:32.606Z,99278.89
2018-08-19T19:33:05.090Z,99283.03
2018-08-19T19:35:33.363Z,99280.84
2018-08-19T19:38:01.658Z,99278.66
2018-08-19T19:40:29.930Z,99282.66
2018-08-19T19:42:58.354Z,99277.84
2018-08-19T19:45:26.650Z,99278.45
2018-08-19T19:47:55.007Z,99279.80
2018-08-19T19:50:23.391Z,99277.60
2018-08-19T19:52:56.938Z,99280.41
2018-08-19T19:55:25.242Z,99282.59
2018-08-19T19:57:53.586Z,99283.56
2018-08-19T20:00:21.871Z,99277.41
2018-08-19T20:02:50.335Z,99279.70
2018-08-19T20:05:24.027Z,99282.84
2018-08-19T20:07:52.650Z,99283.36
2018-08-19T20:10:28.278Z,99281.17
2018-08-19T20:12:56.694Z,99286.50
2018-08-19T20:15:25.118Z,99282.64
2018-08-19T20:17:53.395Z,99277.79
2018-08-19T20:20:21.687Z,99286.30
2018-08-19T20:22:50.008Z,99283.26
2018-08-19T20:25:18.336Z,99290.06
2018-08-19T20:27:48.171Z,99289.22
2018-08-19T20:30:16.518Z,99293.73
2018-08-19T20:32:44.839Z,99289.35
2018-08-19T20:35:13.230Z,99296.02
2018-08-19T20:37:41.621Z,99292.16
2018-08-19T20:40:10.252Z,99293.97
2018-08-19T20:42:38.590Z,99296.64
2018-08-19T20:45:07.854Z,99298.48
2018-08-19T20:47:36.282Z,99299.81
2018-08-19T20:50:04.678Z,99300.44
2018-08-19T20:52:45.832Z,99299.09
2018-08-19T20:55:14.490Z,99297.53
2018-08-19T20:57:43.038Z,99303.72
2018-08-19T21:00:11.598Z,99308.70
2018-08-19T21:02:39.922Z,99299.00
2018-08-19T21:05:08.254Z,99307.52
2018-08-19T21:07:36.604Z,99309.33
2018-08-19T21:10:05.646Z,99311.61
2018-08-19T21:12:33.918Z,99311.27
2018-08-19T21:15:02.317Z,99318.42
2018-08-19T21:17:31.934Z,99315.41
2018-08-19T21:20:00.390Z,99315.55
2018-08-19T21:22:28.632Z,99311.55
2018-08-19T21:24:57.023Z,99319.17
2018-08-19T21:27:25.453Z,99315.69
2018-08-19T21:29:53.776Z,99315.82
2018-08-19T21:32:22.303Z,99321.16
2018-08-19T21:34:51.125Z,99315.95
2018-08-19T21:37:34.415Z,99322.25
2018-08-19T21:40:03.051Z,99327.20
2018-08-19T21:42:54.807Z,99326.34
2018-08-19T21:45:23.122Z,99319.82
2018-08-19T21:47:52.126Z,99326.11
2018-08-19T21:50:20.411Z,99318.11
2018-08-19T21:53:10.876Z,99320.44
2018-08-19T21:55:41.507Z,99322.38
2018-08-19T21:58:09.978Z,99318.90
2018-08-19T22:00:39.635Z,99320.23
2018-08-19T22:03:15.702Z,99312.34
2018-08-19T22:05:44.406Z,99319.00
2018-08-19T22:08:12.850Z,99314.31
2018-08-19T22:10:42.938Z,99315.65
2018-08-19T22:13:11.418Z,99311.65
2018-08-19T22:15:40.733Z,99316.61
2018-08-19T22:18:10.900Z,99322.92
2018-08-19T22:20:39.390Z,99319.78
2018-08-19T22:23:07.887Z,99315.89
2018-08-19T22:25:36.206Z,99314.21
2018-08-19T22:28:04.558Z,99316.02
2018-08-19T22:30:32.878Z,99328.02
2018-08-19T22:33:01.223Z,99322.34
2018-08-19T22:35:31.266Z,99329.48
2018-08-19T22:38:02.998Z,99321.97
2018-08-19T22:40:36.719Z,99320.77
2018-08-19T22:43:05.738Z,99327.44
2018-08-19T22:45:34.126Z,99324.08
2018-08-19T22:48:02.491Z,99328.08
2018-08-19T22:50:31.062Z,99319.23
2018-08-19T22:52:59.510Z,99326.38
2018-08-19T22:55:28.011Z,99325.52
2018-08-19T22:58:01.534Z,99322.51
2018-08-19T23:00:29.878Z,99321.17
2018-08-19T23:02:58.262Z,99323.50
2018-08-19T23:05:26.586Z,99318.64
2018-08-19T23:07:55.719Z,99321.31
2018-08-19T23:10:24.028Z,99323.97
2018-08-19T23:12:52.350Z,99318.41
2018-08-19T23:15:31.890Z,99324.11
2018-08-19T23:18:00.302Z,99323.73
2018-08-19T23:20:28.594Z,99321.20
2018-08-19T23:22:57.027Z,99323.87
2018-08-19T23:25:25.334Z,99324.86
2018-08-19T23:27:53.714Z,99324.14
2018-08-19T23:30:22.039Z,99323.19
2018-08-19T23:32:50.367Z,99317.47
2018-08-19T23:35:18.672Z,99313.48
2018-08-19T23:37:47.004Z,99312.28
2018-08-19T23:40:15.378Z,99312.63
2018-08-19T23:42:43.710Z,99318.94
2018-08-19T23:45:12.017Z,99315.08
2018-08-19T23:47:40.278Z,99317.75
2018-08-19T23:50:08.630Z,99323.08
2018-08-19T23:52:36.905Z,99319.55
2018-08-19T23:55:05.241Z,99312.04
2018-08-19T23:57:33.523Z,99316.55
